M I D A S
Marine Information and Data Acquisition System
Tripno 2138 of the Zeeleeuw from 2010-04-22 08:00:00 to 2010-04-22 17:00:00
Back to CruiseResearch ActivitiesStationsMapUnderway DataData graphs

EquipmentUnitsComment
TimeDGPSUTC
LatitudeDGPSDM.mWGS84
LongitudeDGPSDM.mWGS84
TemperatureSBE03/SBE38deg celciusITS90
ConductivitySBE21S/mITS90
SalinitySBE21 Practical Salinity Units
ChlorophylAChelsea fluorimeterg/lCalibrated in Aceton
Missing or incorrect values are displayed as -999
Sea surface data collected by the RV Zeeleeuw from 2010-04-22 08:00:00 to 2010-04-22 17:00:00
Time Latitude Longitude Temperature Conductivity Salinity ChlorophylA
2010-04-22 08:01:02 51°31.391 2°52.66 8.2914 3.46124 32.78786 6.138363
2010-04-22 08:02:02 51°31.384 2°52.676 8.2968 3.460819 32.781877 5.929418
2010-04-22 08:03:02 51°31.375 2°52.688 8.2997 3.460186 32.773676 5.616002
2010-04-22 08:04:02 51°31.368 2°52.691 8.2964 3.459553 32.762384 5.476706
2010-04-22 08:05:02 51°31.366 2°52.69 8.2953 3.460502 32.775455 5.720474
2010-04-22 08:06:02 51°31.368 2°52.688 8.2972 3.46124 32.781669 5.929418
2010-04-22 08:07:02 51°31.371 2°52.687 8.2991 3.462611 32.79531 6.277659
2010-04-22 08:08:02 51°31.376 2°52.689 8.3073 3.463665 32.804075 6.486603
2010-04-22 08:09:02 51°31.379 2°52.686 8.3021 3.463243 32.79964 6.416955
2010-04-22 08:10:02 51°31.38 2°52.679 8.3004 3.461556 32.782675 5.999067
2010-04-22 08:11:02 51°31.38 2°52.674 8.3061 3.460291 32.769371 5.790122
2010-04-22 08:12:02 51°31.381 2°52.67 8.3079 3.45987 32.759524 5.51153
2010-04-22 08:13:02 51°31.382 2°52.668 8.307 3.458077 32.740682 5.476706
2010-04-22 08:14:02 51°31.383 2°52.668 8.3098 3.459026 32.749884 5.581178
2010-04-22 08:15:02 51°31.383 2°52.669 8.3015 3.461135 32.772826 6.138363
2010-04-22 08:16:02 51°31.381 2°52.669 8.2991 3.463559 32.801418 6.695548
2010-04-22 08:17:02 51°31.381 2°52.67 8.2983 3.465352 32.82414 6.904492
2010-04-22 08:18:02 51°31.382 2°52.67 8.3043 3.466195 32.833787 6.97414
2010-04-22 08:19:02 51°31.383 2°52.671 8.3061 3.463454 32.799536 6.208011
2010-04-22 08:20:02 51°31.383 2°52.672 8.3117 3.45987 32.760297 6.033891
2010-04-22 08:21:02 51°31.382 2°52.672 8.3141 3.459237 32.747465 5.824946
2010-04-22 08:22:02 51°31.382 2°52.671 8.314 3.459975 32.75445 5.720474
2010-04-22 08:23:02 51°31.382 2°52.672 8.3148 3.459975 32.752132 5.894594
2010-04-22 08:24:02 51°31.381 2°52.673 8.3123 3.46124 32.764657 6.208011
2010-04-22 08:25:02 51°31.382 2°52.673 8.3172 3.461134 32.762003 6.242835
2010-04-22 08:26:02 51°31.381 2°52.674 8.32 3.460818 32.758679 6.173187
2010-04-22 08:27:02 51°31.382 2°52.675 8.3241 3.461872 32.768215 6.103539
2010-04-22 08:28:02 51°31.382 2°52.677 8.3221 3.461556 32.762572 5.999067
2010-04-22 08:29:02 51°31.381 2°52.677 8.3238 3.460924 32.756697 5.929418
2010-04-22 08:30:02 51°31.38 2°52.678 8.3236 3.461767 32.764015 6.242835
2010-04-22 08:31:02 51°31.378 2°52.68 8.3292 3.459237 32.737425 6.277659
2010-04-22 08:32:02 51°31.377 2°52.68 8.3285 3.460924 32.75129 5.790122
2010-04-22 08:33:02 51°31.376 2°52.68 8.3338 3.459764 32.736788 5.163289
2010-04-22 08:34:02 51°31.376 2°52.68 8.3293 3.459975 32.733601 5.372234
2010-04-22 08:35:02 51°31.378 2°52.68 8.3288 3.46124 32.752296 6.033891
2010-04-22 08:36:02 51°31.38 2°52.68 8.3275 3.461345 32.754949 6.347307
2010-04-22 08:37:02 51°31.382 2°52.678 8.3346 3.45755 32.712757 5.790122
2010-04-22 08:38:02 51°31.383 2°52.675 8.339 3.459131 32.726284 5.441882
2010-04-22 08:39:02 51°31.382 2°52.673 8.3411 3.457866 32.706826 4.884697
2010-04-22 08:40:02 51°31.381 2°52.67 8.3442 3.457128 32.694452 4.919521
2010-04-22 08:41:02 51°31.382 2°52.67 8.3404 3.458077 32.70827 5.33741
2010-04-22 08:42:02 51°31.383 2°52.67 8.3445 3.458182 32.708606 5.198113
2010-04-22 08:43:02 51°31.383 2°52.671 8.3395 3.459342 32.719243 5.33741
2010-04-22 08:44:02 51°31.381 2°52.671 8.339 3.459131 32.7178 5.163289
2010-04-22 08:45:02 51°31.37 2°52.661 8.3467 3.458815 32.716021 5.198113
2010-04-22 08:46:02 51°31.356 2°52.65 8.34 3.459658 32.721023 5.407058
2010-04-22 08:47:02 51°31.347 2°52.643 8.3354 3.460396 32.734173 5.790122
2010-04-22 08:48:02 51°31.342 2°52.64 8.3378 3.460607 32.738703 6.033891
2010-04-22 08:49:02 51°31.309 2°52.702 8.3356 3.461134 32.745784 5.929418
2010-04-22 08:50:02 51°31.394 2°52.901 8.3406 3.46008 32.737796 5.929418
2010-04-22 08:51:02 51°31.577 2°53.15 8.3517 3.457444 32.693151 4.431984
2010-04-22 08:52:02 51°31.763 2°53.412 8.3433 3.456917 32.689927 5.267761
2010-04-22 08:54:01 51°32.129 2°53.938 8.3346 3.443107 32.551868 3.735503
2010-04-22 08:55:55 51°32.481 2°54.445 8.3308 3.449854 32.628076 3.456911
2010-04-22 08:56:55 51°32.677 2°54.688 8.3368 3.457234 32.711749 4.327512
2010-04-22 08:57:55 51°32.897 2°54.877 8.351 3.451225 32.640159 3.596207
2010-04-22 08:58:55 51°33.107 2°55.081 8.2695 3.451014 32.628716 3.387263
2010-04-22 08:59:55 51°33.276 2°55.306 8.1981 3.468726 32.896123 7.949214
2010-04-22 09:00:55 51°33.3 2°55.532 8.1927 3.474841 33.008119 9.20288
2010-04-22 09:01:55 51°33.263 2°55.668 8.204 3.46957 32.960312 8.680519
2010-04-22 09:02:55 51°33.232 2°55.739 8.2196 3.466829 32.924379 7.844741
2010-04-22 09:03:55 51°33.219 2°55.792 8.2584 3.459871 32.837015 6.033891
2010-04-22 09:04:55 51°33.21 2°55.834 8.2762 3.4585 32.789218 4.536456
2010-04-22 09:05:55 51°33.207 2°55.87 8.2693 3.455758 32.746435 4.640929
2010-04-22 09:06:55 51°33.207 2°55.901 8.2662 3.455548 32.748084 5.128465
2010-04-22 09:07:55 51°33.208 2°55.928 8.2907 3.454704 32.73921 5.163289
2010-04-22 09:08:55 51°33.211 2°55.952 8.2978 3.449855 32.668895 4.536456
2010-04-22 09:09:55 51°33.214 2°55.974 8.3167 3.447852 32.63474 3.735503
2010-04-22 09:10:55 51°33.218 2°55.996 8.346 3.44258 32.562452 3.247966
2010-04-22 09:11:55 51°33.222 2°56.016 8.3575 3.443213 32.548372 2.795254
2010-04-22 09:12:55 51°33.225 2°56.036 8.3777 3.440893 32.508714 2.272893
2010-04-22 09:13:55 51°33.23 2°56.053 8.3646 3.439101 32.475386 2.238069
2010-04-22 09:14:55 51°33.235 2°56.069 8.3587 3.443634 32.540528 3.004198
2010-04-22 09:15:55 51°33.24 2°56.085 8.3528 3.443318 32.535678 2.969374
2010-04-22 09:16:55 51°33.236 2°56.107 8.3517 3.446059 32.569034 3.561383
2010-04-22 09:17:55 51°33.223 2°56.182 8.3396 3.446691 32.577206 3.735503
2010-04-22 09:18:55 51°33.218 2°56.266 8.3884 3.446375 32.580028 3.491735
2010-04-22 09:19:55 51°33.22 2°56.333 8.4237 3.439312 32.462313 1.924652
2010-04-22 09:20:55 51°33.225 2°56.39 8.4427 3.434989 32.391883 1.158523
2010-04-22 09:21:55 51°33.231 2°56.438 8.4502 3.435305 32.380731 0.914755
2010-04-22 09:22:55 51°33.237 2°56.479 8.4682 3.434673 32.361188 0.810283
2010-04-22 09:23:55 51°33.242 2°56.515 8.449 3.436465 32.373089 0.879931
2010-04-22 09:24:55 51°33.246 2°56.546 8.4088 3.440049 32.432657 1.750532
2010-04-22 09:25:55 51°33.25 2°56.573 8.3702 3.445848 32.524684 2.899726
2010-04-22 09:26:55 51°33.256 2°56.598 8.3504 3.449854 32.600411 4.153392
2010-04-22 09:27:55 51°33.264 2°56.622 8.3356 3.451963 32.641753 5.023993
2010-04-22 09:28:55 51°33.274 2°56.644 8.3482 3.453649 32.664851 5.058817
2010-04-22 09:29:55 51°33.285 2°56.664 8.3682 3.449749 32.613131 4.431984
2010-04-22 09:30:55 51°33.296 2°56.684 8.3833 3.44511 32.546812 3.839975
2010-04-22 09:31:55 51°33.306 2°56.703 8.4065 3.439628 32.472503 3.178318
2010-04-22 09:32:55 51°33.317 2°56.721 8.4073 3.434251 32.401678 2.551485
2010-04-22 09:33:55 51°33.327 2°56.732 8.4132 3.435938 32.417055 2.551485
2010-04-22 09:34:55 51°33.337 2°56.735 8.4276 3.432038 32.369358 2.203245
2010-04-22 09:35:55 51°33.346 2°56.736 8.3963 3.432354 32.369624 2.516661
2010-04-22 09:36:55 51°33.355 2°56.737 8.3915 3.438785 32.461373 3.213142
2010-04-22 09:37:55 51°33.364 2°56.743 8.4095 3.437625 32.443878 2.690782
2010-04-22 09:38:55 51°33.373 2°56.752 8.4292 3.433619 32.388197 2.307717
2010-04-22 09:39:55 51°33.381 2°56.764 8.4728 3.43151 32.344827 1.750532
2010-04-22 09:40:55 51°33.389 2°56.777 8.4741 3.429402 32.290903 1.297819
2010-04-22 09:41:55 51°33.396 2°56.792 8.474 3.429402 32.28863 1.297819
2010-04-22 09:42:55 51°33.404 2°56.807 8.4673 3.42898 32.284981 1.47194
2010-04-22 09:43:55 51°33.412 2°56.824 8.4589 3.430034 32.305855 1.889828
2010-04-22 09:44:55 51°33.42 2°56.84 8.4514 3.430878 32.316189 1.959476
2010-04-22 09:45:55 51°33.428 2°56.857 8.4413 3.430772 32.331029 2.307717
2010-04-22 09:46:55 51°33.436 2°56.868 8.4478 3.431194 32.336959 2.447013
2010-04-22 09:47:55 51°33.444 2°56.873 8.4647 3.431194 32.330123 2.133597
2010-04-22 09:48:55 51°33.453 2°56.875 8.4396 3.430456 32.311022 1.855004
2010-04-22 09:49:55 51°33.462 2°56.881 8.4243 3.433092 32.362132 2.586309
2010-04-22 09:50:55 51°33.469 2°56.889 8.4246 3.43404 32.379668 2.551485
2010-04-22 09:51:55 51°33.475 2°56.899 8.4304 3.433619 32.376777 2.342541
2010-04-22 09:52:55 51°33.481 2°56.911 8.4579 3.433197 32.365517 2.168421
2010-04-22 09:53:55 51°33.486 2°56.923 8.4724 3.431721 32.322729 1.506764
2010-04-22 09:54:55 51°33.493 2°56.931 8.4777 3.432037 32.316931 1.541588
2010-04-22 09:55:55 51°33.503 2°56.935 8.4698 3.432353 32.316444 1.611236
2010-04-22 09:56:55 51°33.513 2°56.939 8.4526 3.43404 32.34242 2.168421
2010-04-22 09:57:55 51°33.521 2°56.944 8.4477 3.435832 32.377878 2.621133
2010-04-22 09:58:55 51°33.529 2°56.952 8.447 3.436465 32.391342 2.725606
2010-04-22 09:59:55 51°33.535 2°56.962 8.4557 3.436886 32.391949 2.621133
2010-04-22 10:00:55 51°33.541 2°56.974 8.462 3.436043 32.37324 2.481837
2010-04-22 10:01:55 51°33.546 2°56.986 8.4616 3.437097 32.381224 2.655957
2010-04-22 10:02:55 51°33.551 2°57 8.4792 3.437624 32.382934 2.76043
2010-04-22 10:03:55 51°33.555 2°57.015 8.5163 3.435305 32.341221 2.412189
2010-04-22 10:04:55 51°33.558 2°57.028 8.5421 3.434777 32.304637 1.785356
2010-04-22 10:05:55 51°33.561 2°57.041 8.5737 3.436675 32.301735 1.47194
2010-04-22 10:06:55 51°33.563 2°57.055 8.5998 3.437939 32.284691 1.054051
2010-04-22 10:07:55 51°33.564 2°57.068 8.6158 3.437517 32.265198 1.054051
2010-04-22 10:08:55 51°33.565 2°57.08 8.6304 3.43836 32.254376 0.740634
2010-04-22 10:09:55 51°33.565 2°57.096 8.65 3.434038 32.195082 0.670986
2010-04-22 10:10:55 51°33.523 2°57.104 8.4814 3.439625 32.23516 0.670986
2010-04-22 10:11:55 51°33.409 2°56.991 8.4667 3.447533 32.458382 2.621133
2010-04-22 10:12:55 51°33.275 2°56.794 8.4292 3.445214 32.456982 2.133597
2010-04-22 10:13:55 51°33.165 2°56.569 8.4147 3.444371 32.490877 2.481837
2010-04-22 10:14:55 51°33.098 2°56.435 8.417 3.442369 32.482884 2.203245
2010-04-22 10:15:55 51°33.076 2°56.352 8.4197 3.440576 32.456478 1.785356
2010-04-22 10:16:55 51°33.07 2°56.291 8.4515 3.439733 32.443832 1.64606
2010-04-22 10:17:55 51°33.073 2°56.287 8.4645 3.440154 32.426141 1.680884
2010-04-22 10:18:59 51°33.072 2°56.408 8.4544 3.437519 32.396283 2.377365
2010-04-22 10:19:58 51°33.061 2°56.529 8.4344 3.442157 32.451674 2.551485
2010-04-22 10:20:56 51°33.05 2°56.608 8.4484 3.440576 32.437411 2.377365
2010-04-22 10:21:55 51°33.037 2°56.662 8.4445 3.437835 32.398831 2.307717
2010-04-22 10:22:55 51°33.025 2°56.706 8.4308 3.43657 32.38788 2.377365
2010-04-22 10:23:55 51°33.018 2°56.745 8.4312 3.436465 32.402 2.725606
2010-04-22 10:24:55 51°33.014 2°56.779 8.4163 3.4352 32.387999 2.93455
2010-04-22 10:25:55 51°33.013 2°56.811 8.4104 3.436571 32.412245 3.247966
2010-04-22 10:26:55 51°33.014 2°56.839 8.397 3.438152 32.437953 3.561383
2010-04-22 10:27:55 51°33.019 2°56.864 8.3898 3.438574 32.456109 3.839975
2010-04-22 10:28:55 51°33.025 2°56.883 8.3822 3.439733 32.476665 4.04892
2010-04-22 10:29:55 51°33.029 2°56.901 8.3797 3.44142 32.495109 4.257864
2010-04-22 10:30:55 51°33.034 2°56.915 8.3753 3.441104 32.501739 4.327512
2010-04-22 10:31:55 51°33.039 2°56.924 8.3723 3.439523 32.485159 4.362336
2010-04-22 10:32:55 51°33.043 2°56.931 8.3814 3.438996 32.481163 4.39716
2010-04-22 10:33:55 51°33.046 2°56.937 8.4287 3.435306 32.425684 4.014096
2010-04-22 10:34:55 51°33.048 2°56.942 8.4495 3.428348 32.319337 3.526559
2010-04-22 10:35:55 51°33.048 2°56.946 8.4701 3.428137 32.298153 3.456911
2010-04-22 10:36:55 51°33.048 2°56.948 8.4896 3.427293 32.271143 3.213142
2010-04-22 10:37:55 51°33.047 2°56.948 8.5432 3.427504 32.252149 2.93455
2010-04-22 10:38:55 51°33.047 2°56.946 8.5834 3.422654 32.150988 2.307717
2010-04-22 10:39:55 51°33.047 2°56.943 8.6266 3.422232 32.11426 1.785356
2010-04-22 10:40:55 51°33.04 2°56.896 8.6793 3.422021 32.070063 1.47194
2010-04-22 10:41:55 51°33.024 2°56.723 8.6089 3.425815 32.059374 0.949579
2010-04-22 10:42:55 51°33.005 2°56.479 8.503 3.427714 32.169849 1.297819
2010-04-22 10:43:55 51°33.018 2°56.22 8.494 3.424447 32.207381 1.088875
2010-04-22 10:44:55 51°33.064 2°56.001 8.4637 3.431721 32.303011 1.158523
2010-04-22 10:45:55 51°33.065 2°55.89 8.619 3.436886 32.36534 1.054051
2010-04-22 10:46:55 51°33.059 2°55.869 8.7385 3.445634 32.296923 0.253098
2010-04-22 10:47:55 51°33.053 2°55.858 8.6623 3.455859 32.345218 0.775459
2010-04-22 10:48:55 51°33.045 2°55.852 8.614 3.457336 32.415686 1.611236
2010-04-22 10:49:55 51°33.04 2°55.849 8.63 3.459339 32.47368 1.889828
2010-04-22 10:50:55 51°33.03 2°55.851 8.6196 3.459761 32.465177 1.82018
2010-04-22 10:51:55 51°33.018 2°55.866 8.6857 3.460077 32.472265 1.785356
2010-04-22 10:52:55 51°33.012 2°55.891 8.7714 3.462712 32.431544 1.054051
2010-04-22 10:53:55 51°33.016 2°55.919 8.709 3.466822 32.404822 0.636162
2010-04-22 10:54:55 51°33.027 2°55.941 8.6565 3.464398 32.449085 0.879931
2010-04-22 10:55:55 51°33.044 2°55.957 8.5888 3.45976 32.447744 1.088875
2010-04-22 10:56:55 51°33.066 2°55.967 8.5143 3.457547 32.489931 1.785356
2010-04-22 10:57:55 51°33.086 2°55.969 8.504 3.455229 32.516715 2.133597
2010-04-22 10:58:55 51°33.104 2°55.959 8.4576 3.453964 32.52103 2.272893
2010-04-22 10:59:55 51°33.116 2°55.936 8.4629 3.453332 32.553358 2.93455
2010-04-22 11:02:06 51°33.133 2°55.866 8.5763 3.454701 32.474674 2.168421
2010-04-22 11:03:06 51°33.148 2°55.846 8.6325 3.457969 32.476854 1.9943
2010-04-22 11:04:06 51°33.163 2°55.839 8.644 3.462185 32.482094 1.64606
2010-04-22 11:05:06 51°33.176 2°55.846 8.6246 3.461974 32.480656 1.64606
2010-04-22 11:06:06 51°33.18 2°55.859 8.59 3.463977 32.510635 2.168421
2010-04-22 11:07:06 51°33.18 2°55.868 8.5768 3.4644 32.547727 2.795254
2010-04-22 11:08:06 51°33.177 2°55.875 8.5473 3.46324 32.558475 3.039022
2010-04-22 11:09:06 51°33.174 2°55.88 8.544 3.46187 32.567038 3.143494
2010-04-22 11:10:06 51°33.171 2°55.883 8.5377 3.460605 32.561452 3.317614
2010-04-22 11:11:06 51°33.167 2°55.884 8.5703 3.460499 32.548911 2.899726
2010-04-22 11:12:06 51°33.163 2°55.885 8.6253 3.46208 32.537232 2.551485
2010-04-22 11:13:06 51°33.158 2°55.885 8.6732 3.464399 32.511991 2.029124
2010-04-22 11:14:06 51°33.154 2°55.884 8.7084 3.464504 32.470617 1.64606
2010-04-22 11:15:06 51°33.149 2°55.882 8.7206 3.468088 32.479135 1.611236
2010-04-22 11:16:06 51°33.143 2°55.88 8.7285 3.46851 32.474439 1.64606
2010-04-22 11:17:06 51°33.137 2°55.877 8.746 3.469353 32.473373 1.576412
2010-04-22 11:18:06 51°33.131 2°55.873 8.7453 3.469142 32.456821 1.506764
2010-04-22 11:19:06 51°33.124 2°55.869 8.7509 3.46988 32.463732 1.541588
2010-04-22 11:20:06 51°33.117 2°55.864 8.7564 3.468298 32.442019 1.541588
2010-04-22 11:21:06 51°33.109 2°55.858 8.7605 3.470091 32.457613 1.611236
2010-04-22 11:22:06 51°33.1 2°55.85 8.764 3.470934 32.463351 1.715708
2010-04-22 11:23:06 51°33.092 2°55.841 8.7782 3.469458 32.442739 1.64606
2010-04-22 11:24:06 51°33.084 2°55.831 8.7881 3.470196 32.436066 1.576412
2010-04-22 11:25:06 51°33.075 2°55.821 8.8105 3.470512 32.431808 1.611236
2010-04-22 11:26:06 51°33.067 2°55.811 8.8199 3.471988 32.429033 1.402292
2010-04-22 11:27:06 51°33.059 2°55.802 8.8083 3.474623 32.451093 1.367467
2010-04-22 11:28:06 51°33.05 2°55.794 8.781 3.476626 32.486204 1.506764
2010-04-22 11:29:06 51°33.041 2°55.785 8.7592 3.471883 32.463386 1.611236
2010-04-22 11:30:06 51°33.031 2°55.781 8.7615 3.474097 32.493932 1.611236
2010-04-22 11:31:06 51°33.027 2°55.815 8.7182 3.474835 32.501597 1.506764
2010-04-22 11:32:06 51°33.056 2°55.849 8.5901 3.473148 32.537829 1.82018
2010-04-22 11:33:06 51°33.168 2°55.886 8.5902 3.466508 32.581916 2.447013
2010-04-22 11:34:06 51°33.273 2°55.884 8.6683 3.462607 32.475869 1.158523
2010-04-22 11:35:06 51°33.314 2°55.853 8.7112 3.465137 32.483262 0.740634
2010-04-22 11:36:06 51°33.332 2°55.82 8.6475 3.468299 32.479057 0.740634
2010-04-22 11:37:06 51°33.342 2°55.794 8.5789 3.46598 32.52771 1.611236
2010-04-22 11:38:06 51°33.343 2°55.773 8.546 3.462713 32.549164 2.238069
2010-04-22 11:39:06 51°33.338 2°55.764 8.545 3.463135 32.574149 2.481837
2010-04-22 11:40:06 51°33.328 2°55.764 8.4946 3.463451 32.585084 3.213142
2010-04-22 11:41:06 51°33.318 2°55.766 8.4599 3.460816 32.601851 4.083744
2010-04-22 11:42:06 51°33.309 2°55.766 8.4391 3.45913 32.618647 4.501632
2010-04-22 11:43:06 51°33.3 2°55.765 8.4168 3.458814 32.633733 4.815049
2010-04-22 11:44:06 51°33.291 2°55.765 8.4306 3.457971 32.634102 4.745401
2010-04-22 11:45:06 51°33.281 2°55.763 8.4289 3.458603 32.631524 4.675753
2010-04-22 11:46:06 51°33.272 2°55.759 8.4221 3.458603 32.632291 4.710577
2010-04-22 11:47:06 51°33.263 2°55.755 8.4214 3.458076 32.63137 4.710577
2010-04-22 11:48:06 51°33.255 2°55.749 8.4276 3.457549 32.628149 4.675753
2010-04-22 11:49:06 51°33.246 2°55.744 8.4294 3.457654 32.623118 4.57128
2010-04-22 11:50:06 51°33.237 2°55.739 8.4323 3.457971 32.624897 4.501632
2010-04-22 11:51:06 51°33.228 2°55.733 8.4572 3.45776 32.618855 4.501632
2010-04-22 11:52:06 51°33.218 2°55.726 8.4791 3.458814 32.60538 3.979271
2010-04-22 11:53:06 51°33.21 2°55.72 8.4856 3.460079 32.605607 4.04892
2010-04-22 11:54:06 51°33.206 2°55.722 8.4528 3.460395 32.602029 4.327512
2010-04-22 11:55:06 51°33.199 2°55.717 8.4264 3.459236 32.627415 4.815049
2010-04-22 11:56:06 51°33.186 2°55.638 8.4645 3.457127 32.620663 4.675753
2010-04-22 11:57:06 51°33.238 2°55.593 8.7252 3.46324 32.563811 2.098773
2010-04-22 11:58:06 51°33.278 2°55.638 8.8179 3.478419 32.543373 0.879931
2010-04-22 11:59:06 51°33.294 2°55.685 8.7528 3.485165 32.554405 1.019227
2010-04-22 12:00:06 51°33.305 2°55.727 8.6775 3.483374 32.611555 1.402292
2010-04-22 12:01:06 51°33.312 2°55.759 8.702 3.478842 32.620633 1.47194
2010-04-22 12:02:06 51°33.316 2°55.782 8.7366 3.479474 32.604404 1.228171
2010-04-22 12:03:06 51°33.32 2°55.799 8.7058 3.481898 32.595451 1.088875
2010-04-22 12:04:06 51°33.336 2°55.831 8.6808 3.479474 32.611245 1.611236
2010-04-22 12:05:06 51°33.356 2°55.876 8.6612 3.477155 32.600026 1.576412
2010-04-22 12:06:06 51°33.372 2°55.925 8.643 3.475785 32.609337 1.64606
2010-04-22 12:07:06 51°33.38 2°55.961 8.666 3.473887 32.606312 1.64606
2010-04-22 12:08:06 51°33.382 2°55.987 8.8211 3.473676 32.554695 1.297819
2010-04-22 12:09:06 51°33.381 2°56.003 8.8342 3.484849 32.553392 0.949579
2010-04-22 12:10:06 51°33.376 2°56.014 8.7334 3.48622 32.57442 1.228171
2010-04-22 12:11:06 51°33.369 2°56.019 8.6567 3.48095 32.603805 2.063949
2010-04-22 12:12:06 51°33.36 2°56.026 8.5883 3.474625 32.608673 2.76043
2010-04-22 12:13:06 51°33.348 2°56.045 8.6239 3.470725 32.623642 3.422087
2010-04-22 12:14:06 51°33.325 2°56.065 8.6673 3.472411 32.58484 2.899726
2010-04-22 12:15:06 51°33.291 2°56.073 8.5523 3.476101 32.629389 3.422087
2010-04-22 12:16:06 51°33.256 2°56.08 8.6653 3.470198 32.62501 3.178318
2010-04-22 12:17:06 51°33.229 2°56.102 8.7294 3.476838 32.581535 2.238069
2010-04-22 12:18:06 51°33.213 2°56.127 8.7348 3.479474 32.585416 1.924652
2010-04-22 12:19:06 51°33.2 2°56.143 8.7234 3.479474 32.577827 1.785356
2010-04-22 12:20:06 51°33.187 2°56.154 8.7562 3.478736 32.573188 1.785356
2010-04-22 12:21:06 51°33.173 2°56.16 8.8181 3.481371 32.561922 1.541588
2010-04-22 12:22:06 51°33.158 2°56.162 8.7503 3.484849 32.567763 1.64606
2010-04-22 12:23:06 51°33.144 2°56.162 8.6503 3.480633 32.592922 2.586309
2010-04-22 12:24:06 51°33.128 2°56.16 8.6097 3.474519 32.597678 3.28279
2010-04-22 12:25:06 51°33.111 2°56.155 8.5846 3.471041 32.601773 3.700679
2010-04-22 12:26:06 51°33.095 2°56.148 8.5844 3.469038 32.596885 3.805151
2010-04-22 12:27:06 51°33.078 2°56.141 8.593 3.469144 32.59951 3.839975
2010-04-22 12:28:06 51°33.061 2°56.133 8.6216 3.470198 32.597549 3.665855
2010-04-22 12:29:06 51°33.045 2°56.125 8.6893 3.472306 32.586785 2.969374
2010-04-22 12:30:06 51°33.027 2°56.115 8.7305 3.476838 32.581535 2.447013
2010-04-22 12:31:06 51°33.009 2°56.104 8.748 3.480317 32.580527 2.307717
2010-04-22 12:32:06 51°32.99 2°56.092 8.782 3.479262 32.552136 2.133597
2010-04-22 12:33:06 51°32.971 2°56.081 8.8365 3.484955 32.577941 1.785356
2010-04-22 12:34:06 51°32.953 2°56.073 8.8742 3.488539 32.56445 1.541588
2010-04-22 12:35:06 51°32.943 2°56.085 8.8894 3.491596 32.564416 1.228171
2010-04-22 12:36:06 51°32.955 2°56.091 8.7652 3.492439 32.575418 1.123699
2010-04-22 12:37:06 51°33.066 2°56.068 8.7623 3.483163 32.584329 1.611236
2010-04-22 12:38:06 51°33.222 2°56.066 8.6164 3.481687 32.58643 1.611236
2010-04-22 12:39:06 51°33.395 2°56.129 8.6036 3.473993 32.602842 1.959476
2010-04-22 12:40:06 51°33.501 2°56.102 8.6519 3.47336 32.59625 1.680884
2010-04-22 12:41:06 51°33.548 2°56.084 8.582 3.474941 32.613492 1.9943
2010-04-22 12:42:06 51°33.571 2°56.077 8.6436 3.471463 32.614559 2.238069
2010-04-22 12:43:06 51°33.582 2°56.075 8.6742 3.47589 32.602064 1.855004
2010-04-22 12:44:06 51°33.585 2°56.071 8.6309 3.477577 32.612784 2.098773
2010-04-22 12:45:06 51°33.583 2°56.065 8.6608 3.475258 32.619074 2.238069
2010-04-22 12:46:06 51°33.577 2°56.058 8.6611 3.47726 32.612534 2.098773
2010-04-22 12:47:06 51°33.57 2°56.048 8.6046 3.476839 32.618798 2.447013
2010-04-22 12:48:06 51°33.56 2°56.037 8.5543 3.472939 32.63301 3.387263
2010-04-22 12:49:06 51°33.549 2°56.026 8.5165 3.469144 32.636918 4.118568
2010-04-22 12:50:06 51°33.536 2°56.013 8.5031 3.46693 32.634427 4.501632
2010-04-22 12:51:06 51°33.52 2°55.999 8.5049 3.465138 32.631755 4.675753
2010-04-22 12:52:06 51°33.503 2°55.984 8.4871 3.465033 32.634479 4.954345
2010-04-22 12:53:06 51°33.485 2°55.967 8.4944 3.463452 32.630952 5.198113
2010-04-22 12:54:06 51°33.467 2°55.949 8.5175 3.463768 32.62584 4.536456
2010-04-22 12:55:06 51°33.448 2°55.93 8.5265 3.465455 32.623588 3.874799
2010-04-22 12:56:06 51°33.429 2°55.91 8.5195 3.465982 32.625275 3.735503
2010-04-22 12:57:06 51°33.409 2°55.89 8.5049 3.464717 32.619697 3.805151
2010-04-22 12:58:06 51°33.389 2°55.87 8.503 3.463452 32.617177 3.805151
2010-04-22 12:59:06 51°33.369 2°55.85 8.5145 3.464928 32.631846 3.839975
2010-04-22 13:00:06 51°33.35 2°55.83 8.5171 3.465665 32.629616 3.665855
2010-04-22 13:01:06 51°33.33 2°55.811 8.5518 3.466403 32.631977 3.665855
2010-04-22 13:02:06 51°33.309 2°55.792 8.6631 3.469882 32.623235 2.830078
2010-04-22 13:03:06 51°33.285 2°55.784 8.6745 3.477471 32.62082 2.168421
2010-04-22 13:04:06 51°33.253 2°55.877 8.769 3.47842 32.623852 2.063949
2010-04-22 13:05:06 51°33.248 2°56.054 8.8491 3.486536 32.589815 1.088875
2010-04-22 13:06:06 51°33.272 2°56.276 8.7245 3.489066 32.603203 1.123699
2010-04-22 13:07:06 51°33.32 2°56.481 8.7798 3.479685 32.599 1.367467
2010-04-22 13:08:06 51°33.367 2°56.558 9.0127 3.483479 32.538418 0.775459
2010-04-22 13:09:06 51°33.399 2°56.569 9.0416 3.500239 32.532605 0.427218
2010-04-22 13:10:06 51°33.416 2°56.559 9.0179 3.502875 32.54179 0.427218
2010-04-22 13:11:06 51°33.422 2°56.543 9.0306 3.501083 32.544318 0.462042
2010-04-22 13:12:06 51°33.421 2°56.525 8.9955 3.502031 32.545099 0.427218
2010-04-22 13:13:06 51°33.415 2°56.506 8.9396 3.499923 32.557147 0.601338
2010-04-22 13:14:06 51°33.405 2°56.487 8.8014 3.494864 32.574113 1.228171
2010-04-22 13:15:06 51°33.392 2°56.467 8.721 3.484112 32.579787 2.272893
2010-04-22 13:16:06 51°33.377 2°56.446 8.6849 3.477365 32.579425 2.864902
2010-04-22 13:17:06 51°33.36 2°56.427 8.6981 3.475257 32.571153 3.004198
2010-04-22 13:18:06 51°33.342 2°56.406 8.7099 3.476944 32.574278 3.10867
2010-04-22 13:19:06 51°33.322 2°56.386 8.6387 3.477049 32.578412 3.28279
2010-04-22 13:20:06 51°33.301 2°56.366 8.5651 3.471252 32.58493 3.944447
2010-04-22 13:21:06 51°33.278 2°56.346 8.5412 3.467246 32.602587 4.466808
2010-04-22 13:22:06 51°33.253 2°56.326 8.5722 3.464295 32.593131 4.431984
2010-04-22 13:23:06 51°33.227 2°56.305 8.6045 3.467141 32.586993 3.979271
2010-04-22 13:24:06 51°33.201 2°56.282 8.6248 3.46946 32.584519 3.839975
2010-04-22 13:25:06 51°33.174 2°56.258 8.6372 3.471146 32.586115 3.456911
2010-04-22 13:26:06 51°33.148 2°56.231 8.6651 3.472095 32.580783 2.76043
2010-04-22 13:27:06 51°33.122 2°56.203 8.6507 3.473254 32.582216 2.899726
2010-04-22 13:28:06 51°33.097 2°56.175 8.6182 3.472306 32.585263 3.039022
2010-04-22 13:29:06 51°33.073 2°56.147 8.6144 3.470619 32.586711 3.004198
2010-04-22 13:30:06 51°33.05 2°56.119 8.6317 3.469987 32.583161 2.93455
2010-04-22 13:31:06 51°33.027 2°56.093 8.6483 3.471146 32.580787 2.516661
2010-04-22 13:32:06 51°33.003 2°56.083 8.6423 3.472306 32.579937 2.481837
2010-04-22 13:33:06 51°32.983 2°56.115 8.7648 3.472095 32.57774 2.307717
2010-04-22 13:34:06 51°32.972 2°56.146 8.8943 3.482319 32.552849 1.506764
2010-04-22 13:35:06 51°32.967 2°56.176 8.9632 3.492228 32.557386 1.123699
2010-04-22 13:36:06 51°32.966 2°56.204 9.0552 3.498342 32.551337 0.70581
2010-04-22 13:37:06 51°32.969 2°56.229 9.0879 3.505827 32.55423 0.392394
2010-04-22 13:38:06 51°32.974 2°56.25 9.1061 3.508778 32.554661 0.35757
2010-04-22 13:39:06 51°32.981 2°56.266 9.0608 3.509832 32.561778 0.35757
2010-04-22 13:40:06 51°32.994 2°56.276 9.0735 3.506986 32.560188 0.427218
2010-04-22 13:41:06 51°33.016 2°56.279 9.0827 3.506775 32.558013 0.392394
2010-04-22 13:42:06 51°33.069 2°56.259 9.1307 3.508357 32.553314 0.322746
2010-04-22 13:43:06 51°33.17 2°56.115 9.1649 3.511519 32.547685 0.18345
2010-04-22 13:44:06 51°33.258 2°55.85 8.7732 3.510676 32.578723 0.740634
2010-04-22 13:45:06 51°33.294 2°55.491 8.6235 3.486958 32.616175 1.576412
2010-04-22 13:46:06 51°33.299 2°55.124 8.7806 3.477366 32.619721 1.715708
2010-04-22 13:47:06 51°33.225 2°54.786 8.9035 3.492124 32.632662 0.949579
2010-04-22 13:48:06 51°33.002 2°54.674 9.0211 3.508885 32.689037 0.845107
2010-04-22 13:49:06 51°32.767 2°54.619 8.7723 3.512259 32.737589 1.123699
2010-04-22 13:50:06 51°32.528 2°54.564 8.6342 3.493178 32.685365 1.228171
2010-04-22 13:51:06 51°32.281 2°54.507 8.687 3.479791 32.649555 1.750532
2010-04-22 13:52:06 51°32.032 2°54.448 8.5395 3.476418 32.649464 4.014096
2010-04-22 13:53:06 51°31.782 2°54.393 8.6324 3.472939 32.662037 3.944447
2010-04-22 13:54:06 51°31.534 2°54.339 8.5648 3.478315 32.676894 4.431984
2010-04-22 13:55:06 51°31.284 2°54.28 8.5263 3.475575 32.69033 4.884697
2010-04-22 13:56:06 51°31.034 2°54.227 8.5265 3.473256 32.687531 4.710577
2010-04-22 13:57:06 51°30.784 2°54.171 8.5512 3.472096 32.692261 5.128465
2010-04-22 13:58:06 51°30.538 2°54.116 8.5713 3.471885 32.661731 4.780225
2010-04-22 13:59:06 51°30.295 2°54.055 8.6971 3.470303 32.620004 4.362336
2010-04-22 14:00:06 51°30.053 2°53.967 8.7907 3.473465 32.532778 3.422087
2010-04-22 14:01:06 51°29.814 2°53.81 8.9881 3.476099 32.450572 2.377365
2010-04-22 14:02:06 51°29.582 2°53.644 9.0522 3.483161 32.384012 1.367467
2010-04-22 14:03:06 51°29.357 2°53.461 9.1403 3.483054 32.320954 1.262995
2010-04-22 14:04:06 51°29.138 2°53.262 9.1869 3.486849 32.309422 1.437116
2010-04-22 14:05:06 51°28.895 2°53.165 9.2457 3.494544 32.311303 1.019227
2010-04-22 14:06:06 51°28.645 2°53.138 8.9977 3.497391 32.334598 1.228171
2010-04-22 14:07:06 51°28.397 2°53.112 8.979 3.481369 32.380471 1.82018
2010-04-22 14:08:06 51°28.148 2°53.081 9.2316 3.478627 32.289475 0.984403
2010-04-22 14:09:06 51°27.897 2°53.054 9.1157 3.486953 32.200854 0.427218
2010-04-22 14:10:06 51°27.647 2°53.024 8.9395 3.473882 32.196774 1.262995
2010-04-22 14:11:06 51°27.399 2°52.996 9.0657 3.465555 32.255967 2.795254
2010-04-22 14:12:06 51°27.15 2°52.966 8.8542 3.464078 32.150694 1.959476
2010-04-22 14:13:06 51°26.9 2°52.93 8.8254 3.444683 32.086407 4.083744
2010-04-22 14:14:06 51°26.65 2°52.897 8.7523 3.438148 32.09846 7.113436
2010-04-22 14:15:06 51°26.399 2°52.86 8.7928 3.432982 32.057607 6.904492
2010-04-22 14:16:06 51°26.147 2°52.82 8.8334 3.431506 32.027418 5.302586
2010-04-22 14:17:06 51°25.895 2°52.78 9.0083 3.433297 31.949469 2.098773
2010-04-22 14:18:06 51°25.645 2°52.742 9.091 3.439516 31.899945 1.506764
2010-04-22 14:19:06 51°25.394 2°52.699 9.3999 3.441201 31.859246 2.133597
2010-04-22 14:20:06 51°25.144 2°52.661 9.5789 3.459013 31.72481 0.427218
2010-04-22 14:21:06 51°24.896 2°52.625 9.4158 3.463756 31.694457 0.70581
2010-04-22 14:22:06 51°24.649 2°52.593 9.2213 3.441093 31.611545 2.133597
2010-04-22 14:23:06 51°24.403 2°52.588 9.2278 3.423068 31.547395 2.690782
2010-04-22 14:24:06 51°24.161 2°52.629 9.1899 3.418535 31.498161 2.969374
2010-04-22 14:25:06 51°23.916 2°52.673 9.0878 3.40926 31.481279 5.093641
2010-04-22 14:26:06 51°23.673 2°52.72 9.0338 3.400406 31.458551 7.775093
2010-04-22 14:27:06 51°23.427 2°52.757 9.0765 3.396401 31.457304 9.272528
2010-04-22 14:28:06 51°23.179 2°52.79 9.2667 3.389759 31.324787 6.660724
2010-04-22 14:29:06 51°22.933 2°52.825 9.4684 3.396081 31.203688 3.631031
2010-04-22 14:30:06 51°22.685 2°52.861 9.6156 3.404197 31.159646 4.257864
2010-04-22 14:31:06 51°22.435 2°52.834 9.4092 3.409255 31.100628 4.083744
2010-04-22 14:32:06 51°22.189 2°52.797 9.2736 3.395975 31.147078 8.819815
2010-04-22 14:33:06 51°21.946 2°52.75 9.5291 3.388282 31.15769 10.700314
2010-04-22 14:34:06 51°21.702 2°52.712 9.5988 3.388911 30.914485 5.198113
2010-04-22 14:35:06 51°21.459 2°52.675 9.6156 3.389649 30.913535 7.461677
2010-04-22 14:36:06 51°21.213 2°52.642 9.6466 3.390808 30.890941 9.307352
2010-04-22 14:37:06 51°20.967 2°52.608 9.5902 3.39397 30.893507 12.162924
2010-04-22 14:38:06 51°20.721 2°52.575 9.6002 3.389227 30.88686 13.625534
2010-04-22 14:39:06 51°20.475 2°52.542 9.6679 3.386275 30.866126 14.496136
2010-04-22 14:40:06 51°20.228 2°52.507 9.6855 3.384904 30.785303 9.620768
2010-04-22 14:41:06 51°19.979 2°52.476 9.6854 3.379423 30.723087 9.620768
2010-04-22 14:42:06 51°19.731 2°52.442 9.7174 3.374679 30.664884 10.49137
2010-04-22 14:43:06 51°19.484 2°52.407 9.6807 3.371622 30.617489 13.799655
2010-04-22 14:44:06 51°19.238 2°52.375 9.6564 3.366668 30.583502 19.68492
2010-04-22 14:45:06 51°18.992 2°52.341 9.7207 3.361293 30.564592 29.296359
2010-04-22 14:46:06 51°18.746 2°52.309 9.8473 3.362662 30.481888 31.734042
2010-04-22 14:47:06 51°18.501 2°52.283 9.8482 3.36772 30.449012 28.007869
2010-04-22 14:48:06 51°18.255 2°52.256 9.8882 3.363399 30.426898 22.296724
2010-04-22 14:49:06 51°18.009 2°52.227 9.8489 3.364558 30.409121 22.61014
2010-04-22 14:50:06 51°17.763 2°52.201 9.9337 3.362239 30.38589 13.277294
2010-04-22 14:51:06 51°17.516 2°52.19 9.9694 3.367614 30.395368 12.685285
2010-04-22 14:52:06 51°17.271 2°52.229 9.9098 3.369406 30.384677 10.386897
2010-04-22 14:53:06 51°17.04 2°52.331 9.941 3.363398 30.373625 12.685285
2010-04-22 14:54:06 51°16.82 2°52.483 10.0274 3.363925 30.325816 11.222675
2010-04-22 14:55:06 51°16.613 2°52.668 10.0031 3.367086 30.317352 14.809552
2010-04-22 14:56:06 51°16.404 2°52.848 10.0096 3.365295 30.308959 16.481107
2010-04-22 14:57:06 51°16.195 2°53.027 10.0708 3.367086 30.310572 7.322381
2010-04-22 14:58:06 51°15.986 2°53.199 10.1704 3.371196 30.294698 6.97414
2010-04-22 14:59:06 51°15.791 2°53.406 10.1264 3.375939 30.293286 6.904492
2010-04-22 15:00:06 51°15.615 2°53.643 10.029 3.374358 30.289029 4.083744
2010-04-22 15:01:06 51°15.444 2°53.884 10.0639 3.364346 30.270368 7.426853
2010-04-22 15:02:06 51°15.273 2°54.126 10.1508 3.362869 30.219182 8.993935
2010-04-22 15:03:06 51°15.099 2°54.363 10.1586 3.366242 30.188104 12.476341
2010-04-22 15:04:06 51°14.912 2°54.575 10.1259 3.366347 30.199911 6.382131
2010-04-22 15:05:06 51°14.719 2°54.774 10.3889 1.830569 15.479341 -0.7568
2010-04-22 15:06:06 51°14.536 2°54.959 10.5149 0.055593 0.379443 -0.7568
2010-04-22 15:07:06 51°14.37 2°55.161 10.608 0.044358 0.300209 -0.7568
2010-04-22 15:08:08 51°14.228 2°55.32 10.7171 0.044046 0.297811 -0.791624
2010-04-22 15:09:09 51°14.127 2°55.409 10.7476 0.043318 0.292322 -0.7568
2010-04-22 15:10:09 51°14.03 2°55.482 10.8363 0.042173 0.284105 -0.826448
2010-04-22 15:11:09 51°13.909 2°55.571 10.959 0.041029 0.276025 -0.7568
2010-04-22 15:12:09 51°13.792 2°55.666 11.0609 0.039677 0.266454 -0.791624
2010-04-22 15:12:25 51°13.769 2°55.692 11.4402 0.979661 7.029439 -0.826448
2010-04-22 15:14:08 51°13.685 2°55.892 11.4245 0.131357 0.863157 -0.861272
2010-04-22 15:15:07 51°13.661 2°55.956 11.4745 0.071718 0.458654 -0.826448